sensor_id;sensor_type;location;lat;lon;timestamp;temperature;humidity
68766;DHT22;55756;45.582;11.484;2022-11-04T00:01:43;16.00;90.90
68766;DHT22;55756;45.582;11.484;2022-11-04T00:04:10;16.10;90.90
68766;DHT22;55756;45.582;11.484;2022-11-04T00:06:37;16.00;91.60
68766;DHT22;55756;45.582;11.484;2022-11-04T00:09:04;16.00;91.40
68766;DHT22;55756;45.582;11.484;2022-11-04T00:11:30;15.90;91.60
68766;DHT22;55756;45.582;11.484;2022-11-04T00:14:15;15.90;92.00
68766;DHT22;55756;45.582;11.484;2022-11-04T00:16:41;15.80;92.40
68766;DHT22;55756;45.582;11.484;2022-11-04T00:19:26;15.80;92.30
68766;DHT22;55756;45.582;11.484;2022-11-04T00:21:52;15.70;92.60
68766;DHT22;55756;45.582;11.484;2022-11-04T00:24:36;15.80;92.70
68766;DHT22;55756;45.582;11.484;2022-11-04T00:27:13;15.70;92.40
68766;DHT22;55756;45.582;11.484;2022-11-04T00:29:58;15.60;93.10
68766;DHT22;55756;45.582;11.484;2022-11-04T00:32:24;15.70;93.00
68766;DHT22;55756;45.582;11.484;2022-11-04T00:35:09;15.70;92.80
68766;DHT22;55756;45.582;11.484;2022-11-04T00:37:36;15.80;92.80
68766;DHT22;55756;45.582;11.484;2022-11-04T00:40:03;16.00;92.50
68766;DHT22;55756;45.582;11.484;2022-11-04T00:42:29;16.00;91.80
68766;DHT22;55756;45.582;11.484;2022-11-04T00:44:54;16.00;91.80
68766;DHT22;55756;45.582;11.484;2022-11-04T00:47:20;16.10;91.60
68766;DHT22;55756;45.582;11.484;2022-11-04T00:49:46;16.20;91.20
68766;DHT22;55756;45.582;11.484;2022-11-04T00:52:12;16.40;90.70
68766;DHT22;55756;45.582;11.484;2022-11-04T00:54:37;16.40;90.10
68766;DHT22;55756;45.582;11.484;2022-11-04T00:57:03;16.40;89.90
68766;DHT22;55756;45.582;11.484;2022-11-04T00:59:29;16.20;89.50
68766;DHT22;55756;45.582;11.484;2022-11-04T01:01:55;16.10;89.80
68766;DHT22;55756;45.582;11.484;2022-11-04T01:04:21;16.10;89.90
68766;DHT22;55756;45.582;11.484;2022-11-04T01:06:47;16.10;89.90
68766;DHT22;55756;45.582;11.484;2022-11-04T01:09:14;16.00;90.00
68766;DHT22;55756;45.582;11.484;2022-11-04T01:11:39;16.10;90.20
68766;DHT22;55756;45.582;11.484;2022-11-04T01:14:05;16.00;89.70
68766;DHT22;55756;45.582;11.484;2022-11-04T01:16:31;16.10;89.70
68766;DHT22;55756;45.582;11.484;2022-11-04T01:18:57;16.20;89.70
68766;DHT22;55756;45.582;11.484;2022-11-04T01:21:23;16.20;89.30
68766;DHT22;55756;45.582;11.484;2022-11-04T01:23:49;16.20;89.50
68766;DHT22;55756;45.582;11.484;2022-11-04T01:26:18;16.30;89.10
68766;DHT22;55756;45.582;11.484;2022-11-04T01:28:45;16.40;88.80
68766;DHT22;55756;45.582;11.484;2022-11-04T01:31:16;16.30;88.50
68766;DHT22;55756;45.582;11.484;2022-11-04T01:33:43;16.30;88.30
68766;DHT22;55756;45.582;11.484;2022-11-04T01:36:10;16.20;88.50
68766;DHT22;55756;45.582;11.484;2022-11-04T01:38:36;16.30;88.40
68766;DHT22;55756;45.582;11.484;2022-11-04T01:41:02;16.30;88.30
68766;DHT22;55756;45.582;11.484;2022-11-04T01:43:57;16.40;87.90
68766;DHT22;55756;45.582;11.484;2022-11-04T01:49:03;16.40;87.70
68766;DHT22;55756;45.582;11.484;2022-11-04T01:51:34;16.50;87.50
68766;DHT22;55756;45.582;11.484;2022-11-04T01:54:01;16.50;87.30
68766;DHT22;55756;45.582;11.484;2022-11-04T01:56:28;16.50;87.10
68766;DHT22;55756;45.582;11.484;2022-11-04T01:58:57;16.30;87.10
68766;DHT22;55756;45.582;11.484;2022-11-04T02:01:24;16.30;87.50
68766;DHT22;55756;45.582;11.484;2022-11-04T02:03:55;16.30;87.60
68766;DHT22;55756;45.582;11.484;2022-11-04T02:06:43;16.30;87.30
68766;DHT22;55756;45.582;11.484;2022-11-04T02:09:10;16.30;87.50
68766;DHT22;55756;45.582;11.484;2022-11-04T02:11:37;16.30;87.40
68766;DHT22;55756;45.582;11.484;2022-11-04T02:14:21;16.20;87.40
68766;DHT22;55756;45.582;11.484;2022-11-04T02:16:48;16.10;87.90
68766;DHT22;55756;45.582;11.484;2022-11-04T02:30:20;16.30;88.10
68766;DHT22;55756;45.582;11.484;2022-11-04T02:35:38;16.10;88.50
68766;DHT22;55756;45.582;11.484;2022-11-04T02:43:22;16.10;88.90
68766;DHT22;55756;45.582;11.484;2022-11-04T02:45:54;16.10;89.00
68766;DHT22;55756;45.582;11.484;2022-11-04T02:48:44;16.10;89.20
68766;DHT22;55756;45.582;11.484;2022-11-04T02:51:12;16.10;89.10
68766;DHT22;55756;45.582;11.484;2022-11-04T02:54:10;16.10;89.50
68766;DHT22;55756;45.582;11.484;2022-11-04T02:56:41;16.10;89.40
68766;DHT22;55756;45.582;11.484;2022-11-04T02:59:14;16.10;89.40
68766;DHT22;55756;45.582;11.484;2022-11-04T03:01:42;16.10;89.40
68766;DHT22;55756;45.582;11.484;2022-11-04T03:04:13;16.10;89.30
68766;DHT22;55756;45.582;11.484;2022-11-04T03:06:42;16.10;89.70
68766;DHT22;55756;45.582;11.484;2022-11-04T03:09:11;16.10;89.40
68766;DHT22;55756;45.582;11.484;2022-11-04T03:11:38;16.10;89.40
68766;DHT22;55756;45.582;11.484;2022-11-04T03:14:22;16.10;89.80
68766;DHT22;55756;45.582;11.484;2022-11-04T03:16:53;16.10;89.60
68766;DHT22;55756;45.582;11.484;2022-11-04T03:22:14;16.10;89.80
68766;DHT22;55756;45.582;11.484;2022-11-04T03:24:41;16.10;89.90
68766;DHT22;55756;45.582;11.484;2022-11-04T03:30:09;16.00;90.20
68766;DHT22;55756;45.582;11.484;2022-11-04T03:32:59;16.00;90.00
68766;DHT22;55756;45.582;11.484;2022-11-04T03:35:29;16.00;90.30
68766;DHT22;55756;45.582;11.484;2022-11-04T03:37:56;16.00;90.30
68766;DHT22;55756;45.582;11.484;2022-11-04T03:40:22;15.90;90.00
68766;DHT22;55756;45.582;11.484;2022-11-04T03:42:59;15.80;90.30
68766;DHT22;55756;45.582;11.484;2022-11-04T03:45:25;15.90;90.30
68766;DHT22;55756;45.582;11.484;2022-11-04T03:47:51;15.90;90.20
68766;DHT22;55756;45.582;11.484;2022-11-04T03:50:32;15.80;90.00
68766;DHT22;55756;45.582;11.484;2022-11-04T03:53:00;15.80;90.70
68766;DHT22;55756;45.582;11.484;2022-11-04T03:58:43;15.90;90.30
68766;DHT22;55756;45.582;11.484;2022-11-04T04:03:41;15.90;90.40
68766;DHT22;55756;45.582;11.484;2022-11-04T04:06:15;15.90;90.20
68766;DHT22;55756;45.582;11.484;2022-11-04T04:08:50;15.90;90.30
68766;DHT22;55756;45.582;11.484;2022-11-04T04:14:16;15.90;90.70
68766;DHT22;55756;45.582;11.484;2022-11-04T04:19:53;16.00;90.50
68766;DHT22;55756;45.582;11.484;2022-11-04T04:22:50;16.00;90.30
68766;DHT22;55756;45.582;11.484;2022-11-04T04:25:16;16.00;90.50
68766;DHT22;55756;45.582;11.484;2022-11-04T04:28:02;16.00;90.10
68766;DHT22;55756;45.582;11.484;2022-11-04T04:30:29;16.10;89.90
68766;DHT22;55756;45.582;11.484;2022-11-04T04:32:59;16.10;89.80
68766;DHT22;55756;45.582;11.484;2022-11-04T04:35:33;16.10;89.80
68766;DHT22;55756;45.582;11.484;2022-11-04T04:38:15;16.10;89.80
68766;DHT22;55756;45.582;11.484;2022-11-04T04:41:05;16.10;89.70
68766;DHT22;55756;45.582;11.484;2022-11-04T04:43:51;16.20;89.70
68766;DHT22;55756;45.582;11.484;2022-11-04T04:46:37;16.20;89.20
68766;DHT22;55756;45.582;11.484;2022-11-04T04:49:06;16.30;89.00
68766;DHT22;55756;45.582;11.484;2022-11-04T04:51:33;16.20;89.10
68766;DHT22;55756;45.582;11.484;2022-11-04T04:54:00;16.20;89.00
68766;DHT22;55756;45.582;11.484;2022-11-04T04:56:26;16.30;88.90
68766;DHT22;55756;45.582;11.484;2022-11-04T04:58:52;16.30;88.70
68766;DHT22;55756;45.582;11.484;2022-11-04T05:01:17;16.40;88.50
68766;DHT22;55756;45.582;11.484;2022-11-04T05:03:43;16.20;89.00
68766;DHT22;55756;45.582;11.484;2022-11-04T05:06:09;16.20;89.20
68766;DHT22;55756;45.582;11.484;2022-11-04T05:08:35;16.20;89.10
68766;DHT22;55756;45.582;11.484;2022-11-04T05:11:00;16.20;89.30
68766;DHT22;55756;45.582;11.484;2022-11-04T05:13:26;16.20;89.10
68766;DHT22;55756;45.582;11.484;2022-11-04T05:15:55;16.20;89.20
68766;DHT22;55756;45.582;11.484;2022-11-04T05:18:22;16.30;89.00
68766;DHT22;55756;45.582;11.484;2022-11-04T05:20:48;16.30;89.10
68766;DHT22;55756;45.582;11.484;2022-11-04T05:23:13;16.30;89.10
68766;DHT22;55756;45.582;11.484;2022-11-04T05:25:40;16.30;89.10
68766;DHT22;55756;45.582;11.484;2022-11-04T05:28:07;16.20;88.90
68766;DHT22;55756;45.582;11.484;2022-11-04T05:30:34;16.20;89.00
68766;DHT22;55756;45.582;11.484;2022-11-04T05:33:00;16.20;89.00
68766;DHT22;55756;45.582;11.484;2022-11-04T05:35:26;16.20;89.00
68766;DHT22;55756;45.582;11.484;2022-11-04T05:37:54;16.20;89.10
68766;DHT22;55756;45.582;11.484;2022-11-04T05:40:20;16.30;89.00
68766;DHT22;55756;45.582;11.484;2022-11-04T05:42:45;16.30;89.10
68766;DHT22;55756;45.582;11.484;2022-11-04T05:45:11;16.30;88.90
68766;DHT22;55756;45.582;11.484;2022-11-04T05:47:37;16.30;88.80
68766;DHT22;55756;45.582;11.484;2022-11-04T05:50:03;16.30;88.70
68766;DHT22;55756;45.582;11.484;2022-11-04T05:52:29;16.20;88.70
68766;DHT22;55756;45.582;11.484;2022-11-04T05:54:54;16.20;88.90
68766;DHT22;55756;45.582;11.484;2022-11-04T05:57:20;16.20;89.00
68766;DHT22;55756;45.582;11.484;2022-11-04T05:59:46;16.20;89.00
68766;DHT22;55756;45.582;11.484;2022-11-04T06:02:12;16.20;89.10
68766;DHT22;55756;45.582;11.484;2022-11-04T06:04:37;16.20;88.90
68766;DHT22;55756;45.582;11.484;2022-11-04T06:07:03;16.20;89.00
68766;DHT22;55756;45.582;11.484;2022-11-04T06:09:29;16.20;88.90
68766;DHT22;55756;45.582;11.484;2022-11-04T06:12:08;16.30;88.80
68766;DHT22;55756;45.582;11.484;2022-11-04T06:14:35;16.20;88.80
68766;DHT22;55756;45.582;11.484;2022-11-04T06:17:01;16.20;88.60
68766;DHT22;55756;45.582;11.484;2022-11-04T06:19:27;16.20;88.60
68766;DHT22;55756;45.582;11.484;2022-11-04T06:21:53;16.20;88.70
68766;DHT22;55756;45.582;11.484;2022-11-04T06:24:19;16.20;88.70
68766;DHT22;55756;45.582;11.484;2022-11-04T06:26:45;16.20;89.00
68766;DHT22;55756;45.582;11.484;2022-11-04T06:29:10;16.10;88.90
68766;DHT22;55756;45.582;11.484;2022-11-04T06:31:37;16.10;89.20
68766;DHT22;55756;45.582;11.484;2022-11-04T06:34:03;16.10;89.20
68766;DHT22;55756;45.582;11.484;2022-11-04T06:36:28;16.10;89.40
68766;DHT22;55756;45.582;11.484;2022-11-04T06:38:54;16.10;89.30
68766;DHT22;55756;45.582;11.484;2022-11-04T06:41:20;16.10;89.40
68766;DHT22;55756;45.582;11.484;2022-11-04T06:43:46;16.20;89.30
68766;DHT22;55756;45.582;11.484;2022-11-04T06:46:37;16.30;89.50
68766;DHT22;55756;45.582;11.484;2022-11-04T06:49:04;16.40;89.10
68766;DHT22;55756;45.582;11.484;2022-11-04T06:51:31;16.50;89.10
68766;DHT22;55756;45.582;11.484;2022-11-04T06:53:57;16.70;88.70
68766;DHT22;55756;45.582;11.484;2022-11-04T06:56:23;16.90;88.30
68766;DHT22;55756;45.582;11.484;2022-11-04T06:58:50;17.00;87.90
68766;DHT22;55756;45.582;11.484;2022-11-04T07:01:17;17.00;87.40
68766;DHT22;55756;45.582;11.484;2022-11-04T07:03:47;17.00;87.30
68766;DHT22;55756;45.582;11.484;2022-11-04T07:06:13;17.00;87.00
68766;DHT22;55756;45.582;11.484;2022-11-04T07:08:38;17.10;86.90
68766;DHT22;55756;45.582;11.484;2022-11-04T07:11:06;17.10;86.80
68766;DHT22;55756;45.582;11.484;2022-11-04T07:13:32;17.00;86.80
68766;DHT22;55756;45.582;11.484;2022-11-04T07:15:58;16.90;86.90
68766;DHT22;55756;45.582;11.484;2022-11-04T07:18:24;16.90;87.10
68766;DHT22;55756;45.582;11.484;2022-11-04T07:20:51;16.90;87.30
68766;DHT22;55756;45.582;11.484;2022-11-04T07:23:17;16.80;87.50
68766;DHT22;55756;45.582;11.484;2022-11-04T07:25:42;16.90;87.60
68766;DHT22;55756;45.582;11.484;2022-11-04T07:28:08;16.80;87.90
68766;DHT22;55756;45.582;11.484;2022-11-04T07:30:34;16.70;88.10
68766;DHT22;55756;45.582;11.484;2022-11-04T07:33:00;16.80;88.20
68766;DHT22;55756;45.582;11.484;2022-11-04T07:35:26;16.80;88.20
68766;DHT22;55756;45.582;11.484;2022-11-04T07:37:52;16.90;87.90
68766;DHT22;55756;45.582;11.484;2022-11-04T07:40:19;16.90;87.80
68766;DHT22;55756;45.582;11.484;2022-11-04T07:42:45;17.00;87.70
68766;DHT22;55756;45.582;11.484;2022-11-04T07:45:15;17.10;87.50
68766;DHT22;55756;45.582;11.484;2022-11-04T07:47:41;17.10;87.30
68766;DHT22;55756;45.582;11.484;2022-11-04T07:50:07;16.90;87.30
68766;DHT22;55756;45.582;11.484;2022-11-04T07:52:33;16.80;87.50
68766;DHT22;55756;45.582;11.484;2022-11-04T07:54:59;16.60;87.40
68766;DHT22;55756;45.582;11.484;2022-11-04T07:57:25;16.50;87.80
68766;DHT22;55756;45.582;11.484;2022-11-04T07:59:51;16.40;88.00
68766;DHT22;55756;45.582;11.484;2022-11-04T08:02:17;16.30;88.10
68766;DHT22;55756;45.582;11.484;2022-11-04T08:04:42;16.30;88.20
68766;DHT22;55756;45.582;11.484;2022-11-04T08:07:08;16.10;87.80
68766;DHT22;55756;45.582;11.484;2022-11-04T08:09:35;16.00;87.50
68766;DHT22;55756;45.582;11.484;2022-11-04T08:12:04;16.00;87.70
68766;DHT22;55756;45.582;11.484;2022-11-04T08:14:30;16.00;87.50
68766;DHT22;55756;45.582;11.484;2022-11-04T08:16:56;16.00;87.20
68766;DHT22;55756;45.582;11.484;2022-11-04T08:19:22;15.90;86.40
68766;DHT22;55756;45.582;11.484;2022-11-04T08:21:48;15.90;86.00
68766;DHT22;55756;45.582;11.484;2022-11-04T08:24:14;16.00;85.10
68766;DHT22;55756;45.582;11.484;2022-11-04T08:26:40;15.90;83.50
68766;DHT22;55756;45.582;11.484;2022-11-04T08:29:07;15.80;82.20
68766;DHT22;55756;45.582;11.484;2022-11-04T08:31:33;15.90;81.80
68766;DHT22;55756;45.582;11.484;2022-11-04T08:33:59;16.00;81.50
68766;DHT22;55756;45.582;11.484;2022-11-04T08:36:29;16.00;81.60
68766;DHT22;55756;45.582;11.484;2022-11-04T08:38:55;16.00;80.80
68766;DHT22;55756;45.582;11.484;2022-11-04T08:41:25;16.10;79.20
68766;DHT22;55756;45.582;11.484;2022-11-04T08:43:51;16.00;78.00
68766;DHT22;55756;45.582;11.484;2022-11-04T08:46:17;16.10;77.80
68766;DHT22;55756;45.582;11.484;2022-11-04T08:48:44;16.10;77.70
68766;DHT22;55756;45.582;11.484;2022-11-04T08:51:13;16.20;78.80
68766;DHT22;55756;45.582;11.484;2022-11-04T08:53:39;16.40;79.00
68766;DHT22;55756;45.582;11.484;2022-11-04T08:56:29;16.70;79.30
68766;DHT22;55756;45.582;11.484;2022-11-04T08:58:57;17.30;77.20
68766;DHT22;55756;45.582;11.484;2022-11-04T09:01:23;17.70;76.00
68766;DHT22;55756;45.582;11.484;2022-11-04T09:03:50;18.10;74.90
68766;DHT22;55756;45.582;11.484;2022-11-04T09:06:22;18.60;73.50
68766;DHT22;55756;45.582;11.484;2022-11-04T09:08:49;18.70;71.10
68766;DHT22;55756;45.582;11.484;2022-11-04T09:11:15;18.80;70.60
68766;DHT22;55756;45.582;11.484;2022-11-04T09:13:42;18.70;69.20
68766;DHT22;55756;45.582;11.484;2022-11-04T09:16:11;18.50;68.80
68766;DHT22;55756;45.582;11.484;2022-11-04T09:18:37;18.40;68.90
68766;DHT22;55756;45.582;11.484;2022-11-04T09:21:05;18.30;67.10
68766;DHT22;55756;45.582;11.484;2022-11-04T09:23:31;18.10;67.20
68766;DHT22;55756;45.582;11.484;2022-11-04T09:26:01;18.10;68.10
68766;DHT22;55756;45.582;11.484;2022-11-04T09:28:27;18.10;68.00
68766;DHT22;55756;45.582;11.484;2022-11-04T09:30:53;18.00;68.60
68766;DHT22;55756;45.582;11.484;2022-11-04T09:33:19;18.00;68.60
68766;DHT22;55756;45.582;11.484;2022-11-04T09:35:54;18.00;68.50
68766;DHT22;55756;45.582;11.484;2022-11-04T09:38:20;18.00;68.60
68766;DHT22;55756;45.582;11.484;2022-11-04T09:40:46;17.90;68.60
68766;DHT22;55756;45.582;11.484;2022-11-04T09:43:36;17.90;67.10
68766;DHT22;55756;45.582;11.484;2022-11-04T09:46:09;17.80;66.00
68766;DHT22;55756;45.582;11.484;2022-11-04T09:48:44;17.80;65.90
68766;DHT22;55756;45.582;11.484;2022-11-04T09:51:18;17.90;66.70
68766;DHT22;55756;45.582;11.484;2022-11-04T09:53:59;17.90;65.90
68766;DHT22;55756;45.582;11.484;2022-11-04T09:56:48;17.80;65.90
68766;DHT22;55756;45.582;11.484;2022-11-04T09:59:20;17.80;65.70
68766;DHT22;55756;45.582;11.484;2022-11-04T10:10:02;17.70;65.20
68766;DHT22;55756;45.582;11.484;2022-11-04T10:23:32;17.60;62.70
68766;DHT22;55756;45.582;11.484;2022-11-04T10:28:41;17.60;62.80
68766;DHT22;55756;45.582;11.484;2022-11-04T10:31:13;17.60;62.90
68766;DHT22;55756;45.582;11.484;2022-11-04T10:33:53;17.80;62.80
68766;DHT22;55756;45.582;11.484;2022-11-04T10:36:20;17.90;62.50
68766;DHT22;55756;45.582;11.484;2022-11-04T10:38:54;18.00;62.10
68766;DHT22;55756;45.582;11.484;2022-11-04T10:44:10;18.00;62.60
68766;DHT22;55756;45.582;11.484;2022-11-04T10:52:14;18.60;59.90
68766;DHT22;55756;45.582;11.484;2022-11-04T10:54:43;18.50;59.60
68766;DHT22;55756;45.582;11.484;2022-11-04T10:57:10;18.30;60.80
68766;DHT22;55756;45.582;11.484;2022-11-04T10:59:47;18.20;60.80
68766;DHT22;55756;45.582;11.484;2022-11-04T11:02:14;18.00;61.40
68766;DHT22;55756;45.582;11.484;2022-11-04T11:04:40;17.80;61.10
68766;DHT22;55756;45.582;11.484;2022-11-04T11:07:11;17.80;62.40
68766;DHT22;55756;45.582;11.484;2022-11-04T11:12:19;17.80;62.50
68766;DHT22;55756;45.582;11.484;2022-11-04T11:14:51;17.80;62.80
68766;DHT22;55756;45.582;11.484;2022-11-04T11:17:22;17.80;62.90
68766;DHT22;55756;45.582;11.484;2022-11-04T11:20:02;17.90;62.90
68766;DHT22;55756;45.582;11.484;2022-11-04T11:22:44;17.90;62.10
68766;DHT22;55756;45.582;11.484;2022-11-04T11:25:29;17.90;62.40
68766;DHT22;55756;45.582;11.484;2022-11-04T11:28:01;17.90;61.50
68766;DHT22;55756;45.582;11.484;2022-11-04T11:30:29;17.90;61.50
68766;DHT22;55756;45.582;11.484;2022-11-04T11:33:04;17.90;61.70
68766;DHT22;55756;45.582;11.484;2022-11-04T11:35:51;18.10;62.20
68766;DHT22;55756;45.582;11.484;2022-11-04T11:38:21;18.00;61.70
68766;DHT22;55756;45.582;11.484;2022-11-04T11:40:49;17.90;60.90
68766;DHT22;55756;45.582;11.484;2022-11-04T11:43:27;17.90;61.10
68766;DHT22;55756;45.582;11.484;2022-11-04T11:45:53;17.90;61.10
68766;DHT22;55756;45.582;11.484;2022-11-04T11:48:42;18.00;61.00
68766;DHT22;55756;45.582;11.484;2022-11-04T11:51:23;17.90;60.50
68766;DHT22;55756;45.582;11.484;2022-11-04T11:54:24;18.00;60.90
68766;DHT22;55756;45.582;11.484;2022-11-04T11:56:55;18.10;61.00
68766;DHT22;55756;45.582;11.484;2022-11-04T11:59:25;18.10;60.40
68766;DHT22;55756;45.582;11.484;2022-11-04T12:04:43;18.10;60.00
68766;DHT22;55756;45.582;11.484;2022-11-04T12:08:04;18.10;60.30
68766;DHT22;55756;45.582;11.484;2022-11-04T12:10:36;18.20;61.70
68766;DHT22;55756;45.582;11.484;2022-11-04T12:13:15;18.20;60.30
68766;DHT22;55756;45.582;11.484;2022-11-04T12:21:44;18.40;59.90
68766;DHT22;55756;45.582;11.484;2022-11-04T12:24:44;18.40;58.80
68766;DHT22;55756;45.582;11.484;2022-11-04T12:27:36;18.40;57.10
68766;DHT22;55756;45.582;11.484;2022-11-04T12:30:09;18.40;55.90
68766;DHT22;55756;45.582;11.484;2022-11-04T12:32:47;18.40;56.30
68766;DHT22;55756;45.582;11.484;2022-11-04T12:40:32;18.40;55.90
68766;DHT22;55756;45.582;11.484;2022-11-04T12:49:17;18.40;55.60
68766;DHT22;55756;45.582;11.484;2022-11-04T12:55:20;18.50;55.80
68766;DHT22;55756;45.582;11.484;2022-11-04T12:58:28;18.50;55.60
68766;DHT22;55756;45.582;11.484;2022-11-04T13:00:56;18.50;54.30
68766;DHT22;55756;45.582;11.484;2022-11-04T13:03:35;18.50;54.00
68766;DHT22;55756;45.582;11.484;2022-11-04T13:06:14;18.60;54.20
68766;DHT22;55756;45.582;11.484;2022-11-04T13:09:04;18.60;53.00
68766;DHT22;55756;45.582;11.484;2022-11-04T13:14:23;18.70;52.30
68766;DHT22;55756;45.582;11.484;2022-11-04T13:17:00;18.70;51.50
68766;DHT22;55756;45.582;11.484;2022-11-04T13:19:42;18.70;51.90
68766;DHT22;55756;45.582;11.484;2022-11-04T13:22:23;18.70;52.80
68766;DHT22;55756;45.582;11.484;2022-11-04T13:24:59;18.70;52.80
68766;DHT22;55756;45.582;11.484;2022-11-04T13:27:35;18.60;53.10
68766;DHT22;55756;45.582;11.484;2022-11-04T13:30:36;18.60;51.90
68766;DHT22;55756;45.582;11.484;2022-11-04T13:33:10;18.60;52.20
68766;DHT22;55756;45.582;11.484;2022-11-04T13:38:34;18.50;53.50
68766;DHT22;55756;45.582;11.484;2022-11-04T13:44:00;18.30;53.00
68766;DHT22;55756;45.582;11.484;2022-11-04T13:46:30;18.30;53.50
68766;DHT22;55756;45.582;11.484;2022-11-04T13:49:11;18.30;54.00
68766;DHT22;55756;45.582;11.484;2022-11-04T13:51:46;18.30;54.00
68766;DHT22;55756;45.582;11.484;2022-11-04T13:54:32;18.30;54.40
68766;DHT22;55756;45.582;11.484;2022-11-04T13:57:15;18.30;54.20
68766;DHT22;55756;45.582;11.484;2022-11-04T14:00:04;18.30;54.60
68766;DHT22;55756;45.582;11.484;2022-11-04T14:02:39;18.30;55.50
68766;DHT22;55756;45.582;11.484;2022-11-04T14:16:12;18.30;54.50
68766;DHT22;55756;45.582;11.484;2022-11-04T14:18:57;18.20;54.70
68766;DHT22;55756;45.582;11.484;2022-11-04T14:21:26;18.10;54.90
68766;DHT22;55756;45.582;11.484;2022-11-04T14:23:58;18.20;52.40
68766;DHT22;55756;45.582;11.484;2022-11-04T14:26:39;18.10;44.40
68766;DHT22;55756;45.582;11.484;2022-11-04T14:29:17;18.10;43.00
68766;DHT22;55756;45.582;11.484;2022-11-04T14:31:56;18.10;44.10
68766;DHT22;55756;45.582;11.484;2022-11-04T14:34:32;18.20;43.20
68766;DHT22;55756;45.582;11.484;2022-11-04T14:37:01;18.10;43.90
68766;DHT22;55756;45.582;11.484;2022-11-04T14:39:35;18.10;44.60
68766;DHT22;55756;45.582;11.484;2022-11-04T14:42:04;18.10;42.30
68766;DHT22;55756;45.582;11.484;2022-11-04T14:44:35;18.10;42.00
68766;DHT22;55756;45.582;11.484;2022-11-04T14:47:29;18.00;43.00
68766;DHT22;55756;45.582;11.484;2022-11-04T15:00:32;17.60;41.60
68766;DHT22;55756;45.582;11.484;2022-11-04T15:06:09;17.60;42.90
68766;DHT22;55756;45.582;11.484;2022-11-04T15:08:42;17.50;43.00
68766;DHT22;55756;45.582;11.484;2022-11-04T15:11:38;17.50;43.60
68766;DHT22;55756;45.582;11.484;2022-11-04T15:14:24;17.40;43.60
68766;DHT22;55756;45.582;11.484;2022-11-04T15:16:55;17.30;43.20
68766;DHT22;55756;45.582;11.484;2022-11-04T15:19:33;17.20;42.50
68766;DHT22;55756;45.582;11.484;2022-11-04T15:22:02;17.20;42.00
68766;DHT22;55756;45.582;11.484;2022-11-04T15:24:28;17.10;42.10
68766;DHT22;55756;45.582;11.484;2022-11-04T15:27:02;17.10;42.80
68766;DHT22;55756;45.582;11.484;2022-11-04T15:29:28;17.10;43.10
68766;DHT22;55756;45.582;11.484;2022-11-04T15:32:00;17.00;43.30
68766;DHT22;55756;45.582;11.484;2022-11-04T15:34:27;17.00;43.50
68766;DHT22;55756;45.582;11.484;2022-11-04T15:36:56;16.90;43.90
68766;DHT22;55756;45.582;11.484;2022-11-04T15:39:28;16.80;44.40
68766;DHT22;55756;45.582;11.484;2022-11-04T15:41:57;16.70;43.90
68766;DHT22;55756;45.582;11.484;2022-11-04T15:44:49;16.60;43.90
68766;DHT22;55756;45.582;11.484;2022-11-04T15:49:49;16.50;45.20
68766;DHT22;55756;45.582;11.484;2022-11-04T15:52:26;16.40;46.80
68766;DHT22;55756;45.582;11.484;2022-11-04T15:54:54;16.30;47.60
68766;DHT22;55756;45.582;11.484;2022-11-04T15:57:39;16.20;48.40
68766;DHT22;55756;45.582;11.484;2022-11-04T16:00:20;16.10;50.10
68766;DHT22;55756;45.582;11.484;2022-11-04T16:02:52;16.00;51.00
68766;DHT22;55756;45.582;11.484;2022-11-04T16:05:26;15.90;52.30
68766;DHT22;55756;45.582;11.484;2022-11-04T16:07:54;15.80;52.80
68766;DHT22;55756;45.582;11.484;2022-11-04T16:10:34;15.70;53.30
68766;DHT22;55756;45.582;11.484;2022-11-04T16:21:04;15.30;53.90
68766;DHT22;55756;45.582;11.484;2022-11-04T16:23:30;15.20;53.40
68766;DHT22;55756;45.582;11.484;2022-11-04T16:26:03;15.20;49.80
68766;DHT22;55756;45.582;11.484;2022-11-04T16:28:38;15.20;49.50
68766;DHT22;55756;45.582;11.484;2022-11-04T16:31:31;15.20;51.50
68766;DHT22;55756;45.582;11.484;2022-11-04T16:33:53;15.00;51.50
68766;DHT22;55756;45.582;11.484;2022-11-04T16:36:19;14.90;52.90
68766;DHT22;55756;45.582;11.484;2022-11-04T16:38:56;14.80;54.00
68766;DHT22;55756;45.582;11.484;2022-11-04T16:41:24;14.60;52.70
68766;DHT22;55756;45.582;11.484;2022-11-04T16:43:51;14.50;53.50
68766;DHT22;55756;45.582;11.484;2022-11-04T16:46:17;14.40;53.70
68766;DHT22;55756;45.582;11.484;2022-11-04T16:48:43;14.40;53.50
68766;DHT22;55756;45.582;11.484;2022-11-04T16:51:27;14.40;53.40
68766;DHT22;55756;45.582;11.484;2022-11-04T16:53:53;14.40;54.10
68766;DHT22;55756;45.582;11.484;2022-11-04T16:56:23;14.50;55.00
68766;DHT22;55756;45.582;11.484;2022-11-04T16:58:50;14.40;55.10
68766;DHT22;55756;45.582;11.484;2022-11-04T17:01:16;14.40;55.00
68766;DHT22;55756;45.582;11.484;2022-11-04T17:03:44;14.30;53.70
68766;DHT22;55756;45.582;11.484;2022-11-04T17:06:13;14.30;54.40
68766;DHT22;55756;45.582;11.484;2022-11-04T17:08:39;14.20;54.90
68766;DHT22;55756;45.582;11.484;2022-11-04T17:11:07;14.10;55.40
68766;DHT22;55756;45.582;11.484;2022-11-04T17:13:33;13.90;55.20
68766;DHT22;55756;45.582;11.484;2022-11-04T17:15:59;13.80;54.70
68766;DHT22;55756;45.582;11.484;2022-11-04T17:18:25;14.00;54.10
68766;DHT22;55756;45.582;11.484;2022-11-04T17:20:53;14.00;53.80
68766;DHT22;55756;45.582;11.484;2022-11-04T17:23:19;14.00;53.10
68766;DHT22;55756;45.582;11.484;2022-11-04T17:25:46;14.10;52.90
68766;DHT22;55756;45.582;11.484;2022-11-04T17:28:12;14.10;52.20
68766;DHT22;55756;45.582;11.484;2022-11-04T17:30:39;14.10;51.70
68766;DHT22;55756;45.582;11.484;2022-11-04T17:33:08;14.20;51.70
68766;DHT22;55756;45.582;11.484;2022-11-04T17:35:38;14.10;52.50
68766;DHT22;55756;45.582;11.484;2022-11-04T17:38:04;14.00;51.50
68766;DHT22;55756;45.582;11.484;2022-11-04T17:40:30;14.10;52.50
68766;DHT22;55756;45.582;11.484;2022-11-04T17:42:56;13.90;53.20
68766;DHT22;55756;45.582;11.484;2022-11-04T17:45:41;13.90;53.70
68766;DHT22;55756;45.582;11.484;2022-11-04T17:48:07;13.90;53.10
68766;DHT22;55756;45.582;11.484;2022-11-04T17:50:36;13.80;52.70
68766;DHT22;55756;45.582;11.484;2022-11-04T17:53:02;13.80;53.30
68766;DHT22;55756;45.582;11.484;2022-11-04T17:55:28;13.80;53.90
68766;DHT22;55756;45.582;11.484;2022-11-04T17:57:54;13.90;53.50
68766;DHT22;55756;45.582;11.484;2022-11-04T18:00:20;13.80;53.30